Time;durP1;ratioP1;P1;durP2;ratioP2;P2;SDS_P1;SDS_P2;PMS_P1;PMS_P2;Temp;Humidity;BMP_temperature;BMP_pressure;BME280_temperature;BME280_humidity;BME280_pressure;Samples;Min_cycle;Max_cycle;Signal;HPM_P1;HPM_P2
2023/10/06 00:00:52;;;;;;;6.75;3.75;;;;;;;14.41;100.00;102261.19;5017788;28;20020;-73
2023/10/06 00:03:20;;;;;;;12.90;4.40;;;;;;;14.40;100.00;102248.31;5036529;28;20029;-73
2023/10/06 00:05:49;;;;;;;10.10;4.50;;;;;;;14.38;100.00;102261.16;5024260;28;20041;-73
2023/10/06 00:08:20;;;;;;;13.52;4.57;;;;;;;14.31;100.00;102260.97;5020251;28;20453;-73
2023/10/06 00:10:51;;;;;;;6.28;4.03;;;;;;;14.34;100.00;102248.97;5016016;28;20056;-74
2023/10/06 00:13:37;;;;;;;10.93;4.55;;;;;;;14.27;100.00;102252.44;5022326;28;20083;-73
2023/10/06 00:16:07;;;;;;;10.20;3.92;;;;;;;14.32;100.00;102252.16;5025431;28;20037;-73
2023/10/06 00:18:36;;;;;;;8.43;4.57;;;;;;;14.36;100.00;102247.44;5030907;28;20041;-73
2023/10/06 00:21:14;;;;;;;8.20;4.38;;;;;;;14.38;100.00;102245.06;5023460;28;20029;-73
2023/10/06 00:23:42;;;;;;;10.70;4.63;;;;;;;14.25;100.00;102235.09;5023310;28;20116;-73
2023/10/06 00:26:10;;;;;;;11.30;4.88;;;;;;;14.32;100.00;102240.91;5020481;28;20026;-73
2023/10/06 00:28:36;;;;;;;8.35;4.30;;;;;;;14.30;100.00;102234.81;5024035;28;20087;-71
2023/10/06 00:31:11;;;;;;;12.13;4.32;;;;;;;14.32;100.00;102229.63;5023945;28;20029;-75
2023/10/06 00:33:37;;;;;;;10.57;4.50;;;;;;;14.29;100.00;102219.09;5021553;28;20080;-76
2023/10/06 00:36:17;;;;;;;7.88;5.00;;;;;;;14.30;100.00;102217.91;5016040;28;20030;-75
2023/10/06 00:38:56;;;;;;;9.10;4.72;;;;;;;14.28;100.00;102234.38;5016457;28;20858;-75
2023/10/06 00:41:21;;;;;;;10.10;4.28;;;;;;;14.31;100.00;102227.97;5016821;28;20037;-76
2023/10/06 00:43:48;;;;;;;12.73;4.53;;;;;;;14.23;100.00;102234.69;5023950;28;20393;-76
2023/10/06 00:46:15;;;;;;;6.40;3.47;;;;;;;14.28;100.00;102228.75;5027939;28;20481;-76
2023/10/06 00:48:42;;;;;;;11.98;4.05;;;;;;;14.30;100.00;102232.00;5019218;28;20033;-76
2023/10/06 00:51:19;;;;;;;6.97;4.03;;;;;;;14.30;100.00;102234.00;5020578;28;20021;-76
2023/10/06 00:53:46;;;;;;;7.75;3.85;;;;;;;14.22;100.00;102249.94;5028511;28;20035;-75
2023/10/06 00:56:14;;;;;;;10.48;3.85;;;;;;;14.17;100.00;102238.97;5022148;28;20367;-76
2023/10/06 00:58:43;;;;;;;9.48;4.13;;;;;;;14.18;100.00;102240.59;5032345;28;20124;-75
2023/10/06 01:01:12;;;;;;;6.30;4.05;;;;;;;14.15;100.00;102241.34;5037141;28;20698;-76
2023/10/06 01:03:42;;;;;;;10.05;4.38;;;;;;;14.16;100.00;102242.97;5015045;28;20037;-76
2023/10/06 01:06:12;;;;;;;12.52;5.18;;;;;;;14.16;100.00;102234.50;5021850;28;20520;-76
2023/10/06 01:08:45;;;;;;;7.30;4.35;;;;;;;14.22;100.00;102219.75;5017431;28;20433;-76
2023/10/06 01:11:11;;;;;;;9.55;5.13;;;;;;;14.19;100.00;102214.09;5027434;28;20057;-75
2023/10/06 01:13:53;;;;;;;8.93;4.25;;;;;;;14.21;100.00;102206.06;5018446;28;20059;-76
2023/10/06 01:16:26;;;;;;;7.63;3.78;;;;;;;14.21;100.00;102211.72;5019256;28;20028;-76
2023/10/06 01:18:52;;;;;;;9.82;4.97;;;;;;;14.21;100.00;102204.06;5020941;28;20087;-75
2023/10/06 01:21:28;;;;;;;10.38;3.97;;;;;;;14.15;100.00;102196.28;5024282;28;20032;-76
2023/10/06 01:23:58;;;;;;;6.95;3.60;;;;;;;14.19;100.00;102191.56;5026725;28;20028;-75
2023/10/06 01:26:24;;;;;;;12.77;4.28;;;;;;;14.17;100.00;102193.91;5025026;28;20033;-76
2023/10/06 01:28:51;;;;;;;10.27;4.53;;;;;;;14.20;100.00;102193.16;5025249;28;20064;-76
2023/10/06 01:31:19;;;;;;;13.88;4.43;;;;;;;14.09;100.00;102189.31;5025925;28;20117;-75
2023/10/06 01:33:45;;;;;;;9.52;4.45;;;;;;;14.13;100.00;102184.59;5019141;28;20068;-76
2023/10/06 01:36:13;;;;;;;8.45;4.22;;;;;;;14.05;100.00;102185.63;5018420;28;20037;-75
2023/10/06 01:38:43;;;;;;;10.73;4.32;;;;;;;14.02;100.00;102182.34;5020453;28;20035;-73
2023/10/06 01:41:09;;;;;;;28.65;5.57;;;;;;;14.15;100.00;102196.28;5019760;28;20029;-72
2023/10/06 01:43:35;;;;;;;7.63;4.03;;;;;;;14.08;100.00;102196.13;5020507;28;20122;-74
2023/10/06 01:46:00;;;;;;;9.02;4.03;;;;;;;14.15;100.00;102187.84;5023344;28;20079;-72
2023/10/06 01:48:30;;;;;;;8.90;4.20;;;;;;;14.08;100.00;102187.69;5022735;28;20038;-71
2023/10/06 01:50:55;;;;;;;7.65;3.83;;;;;;;14.01;100.00;102208.06;5022663;28;20033;-74
2023/10/06 01:53:21;;;;;;;8.52;4.30;;;;;;;14.10;100.00;102203.00;5023917;28;20512;-74
2023/10/06 01:55:52;;;;;;;12.40;3.60;;;;;;;14.07;100.00;102198.13;5028278;28;20113;-74
2023/10/06 01:58:18;;;;;;;10.05;4.13;;;;;;;14.10;100.00;102180.50;5030406;28;20025;-74
2023/10/06 02:00:47;;;;;;;6.88;3.75;;;;;;;14.09;100.00;102180.88;5028201;28;20103;-74
2023/10/06 02:03:16;;;;;;;10.27;4.82;;;;;;;14.02;100.00;102182.34;5024820;28;20037;-74
2023/10/06 02:05:42;;;;;;;9.68;4.57;;;;;;;14.07;100.00;102177.63;5026765;28;20079;-74
2023/10/06 02:08:09;;;;;;;9.50;4.40;;;;;;;14.02;100.00;102182.34;5024536;28;20053;-74
2023/10/06 02:10:36;;;;;;;8.95;4.32;;;;;;;14.09;100.00;102175.25;5027217;28;20053;-74
2023/10/06 02:13:01;;;;;;;9.88;4.13;;;;;;;14.02;100.00;102165.47;5026564;28;20038;-74
2023/10/06 02:15:27;;;;;;;12.65;4.70;;;;;;;13.95;100.00;102173.75;5019794;28;20864;-74
2023/10/06 02:17:52;;;;;;;11.05;4.97;;;;;;;13.97;100.00;102162.94;5024766;28;20029;-74
2023/10/06 02:22:54;;;;;;;13.88;4.53;;;;;;;13.95;100.00;102165.31;5038258;28;20025;-74
2023/10/06 02:25:23;;;;;;;14.32;5.40;;;;;;;13.88;100.00;102170.78;5028269;28;20128;-74
2023/10/06 02:27:50;;;;;;;10.43;5.68;;;;;;;13.88;100.00;102165.16;5018340;28;20057;-74
2023/10/06 02:30:19;;;;;;;13.20;5.65;;;;;;;13.83;100.00;102162.66;5031951;28;20472;-74
2023/10/06 02:32:46;;;;;;;12.88;4.82;;;;;;;13.88;100.00;102159.53;5028934;28;20026;-74
2023/10/06 02:35:17;;;;;;;10.73;5.07;;;;;;;13.91;100.00;102161.59;5028640;28;20030;-74
2023/10/06 02:37:46;;;;;;;9.60;4.78;;;;;;;13.94;100.00;102160.88;5017188;28;20029;-74
2023/10/06 02:40:12;;;;;;;11.20;4.50;;;;;;;13.96;100.00;102160.50;5021161;28;20033;-74
2023/10/06 02:42:53;;;;;;;10.73;5.35;;;;;;;13.94;100.00;102162.88;5020095;28;20538;-74
2023/10/06 02:45:21;;;;;;;8.85;5.80;;;;;;;13.85;100.00;102154.66;5014981;28;20055;-74
2023/10/06 02:47:47;;;;;;;10.30;3.80;;;;;;;13.91;100.00;102141.88;5025750;28;20029;-74
2023/10/06 02:50:20;;;;;;;10.07;4.05;;;;;;;13.95;100.00;102148.41;5022927;28;22453;-74
2023/10/06 02:52:46;;;;;;;;;;;;;;;13.84;100.00;102153.00;5023156;28;20041;-74
2023/10/06 02:55:20;;;;;;;7.97;4.03;;;;;;;13.89;100.00;102138.63;5019097;28;19921;-74
2023/10/06 02:57:52;;;;;;;12.52;5.00;;;;;;;13.83;100.00;102152.19;5025911;28;20041;-74
2023/10/06 03:02:46;;;;;;;12.52;5.32;;;;;;;13.84;100.00;102147.38;5020700;28;20692;-74
2023/10/06 03:05:13;;;;;;;11.75;4.30;;;;;;;13.70;100.00;102141.44;5025165;28;20022;-74
2023/10/06 03:07:38;;;;;;;12.13;4.40;;;;;;;13.73;100.00;102135.09;5021733;28;20121;-74
2023/10/06 03:10:08;;;;;;;7.18;3.90;;;;;;;13.71;100.00;102121.38;5029323;28;20108;-74
2023/10/06 03:12:34;;;;;;;10.63;4.40;;;;;;;13.67;100.00;102120.50;5029043;28;20638;-74
2023/10/06 03:15:01;;;;;;;7.68;4.57;;;;;;;13.73;100.00;102118.22;5038158;28;20041;-74
2023/10/06 03:17:26;;;;;;;7.35;4.15;;;;;;;13.67;100.00;102120.50;5022599;28;20041;-74
2023/10/06 03:20:12;;;;;;;6.53;4.75;;;;;;;13.67;100.00;102111.25;5027177;28;20029;-74
2023/10/06 03:22:38;;;;;;;10.88;4.07;;;;;;;13.60;100.00;102117.53;5034021;28;20560;-74
2023/10/06 03:25:16;;;;;;;7.75;3.60;;;;;;;13.68;100.00;102122.13;5026965;28;20665;-74
2023/10/06 03:27:42;;;;;;;10.57;4.35;;;;;;;13.68;100.00;102121.31;5027644;28;20083;-74
2023/10/06 03:30:18;;;;;;;9.35;3.58;;;;;;;13.71;100.00;102120.56;5025906;28;20420;-74
2023/10/06 03:32:48;;;;;;;12.27;3.53;;;;;;;13.74;100.00;102120.63;5023033;28;20501;-74
2023/10/06 03:38:08;;;;;;;10.82;4.40;;;;;;;13.67;100.00;102114.88;5025564;28;20355;-74
2023/10/06 03:43:50;;;;;;;6.38;3.58;;;;;;;13.70;100.00;102119.75;5015916;28;20045;-74
2023/10/06 03:46:18;;;;;;;8.27;3.95;;;;;;;13.69;100.00;102109.69;5021582;28;20736;-74
2023/10/06 03:48:45;;;;;;;11.80;4.40;;;;;;;13.66;100.00;102106.78;5018396;28;20033;-74
2023/10/06 03:51:11;;;;;;;8.85;4.35;;;;;;;13.59;100.00;102105.44;5015657;28;20040;-74
2023/10/06 03:53:36;;;;;;;9.75;4.38;;;;;;;13.58;100.00;102101.03;5030725;28;20489;-75
2023/10/06 03:56:02;;;;;;;6.63;4.10;;;;;;;13.57;100.00;102082.50;5022315;28;20076;-75
2023/10/06 03:58:28;;;;;;;8.68;5.28;;;;;;;13.60;100.00;102098.66;5030159;28;20033;-75
2023/10/06 04:00:54;;;;;;;9.98;4.25;;;;;;;13.67;100.00;102091.53;5026185;28;20107;-74
2023/10/06 04:03:21;;;;;;;8.90;4.75;;;;;;;13.57;100.00;102098.56;5019957;28;20040;-74
2023/10/06 04:05:51;;;;;;;7.93;3.85;;;;;;;13.67;100.00;102095.16;5021206;28;20420;-74
2023/10/06 04:08:23;;;;;;;10.75;4.28;;;;;;;13.69;100.00;102106.88;5021423;28;20045;-74
2023/10/06 04:10:53;;;;;;;10.20;4.15;;;;;;;13.63;100.00;102100.72;5034318;28;20033;-75
2023/10/06 04:13:20;;;;;;;15.15;5.25;;;;;;;13.53;100.00;102087.22;5021698;28;20030;-75
2023/10/06 04:15:49;;;;;;;12.35;5.28;;;;;;;13.54;100.00;102083.25;5024862;28;20463;-75
2023/10/06 04:18:22;;;;;;;14.38;4.93;;;;;;;13.62;100.00;102079.41;5021581;28;20037;-75
2023/10/06 04:20:48;;;;;;;8.93;5.00;;;;;;;13.59;100.00;102074.50;5018828;28;20025;-77
2023/10/06 04:23:17;;;;;;;13.23;5.35;;;;;;;13.48;100.00;102079.09;5016569;28;20079;-76
2023/10/06 04:25:43;;;;;;;12.82;5.38;;;;;;;13.52;100.00;102079.97;5025306;28;20056;-76
2023/10/06 04:28:15;;;;;;;15.10;4.93;;;;;;;13.56;100.00;102072.44;5020073;28;20242;-76
2023/10/06 04:30:44;;;;;;;10.38;4.75;;;;;;;13.54;100.00;102080.44;5015318;28;20021;-77
2023/10/06 04:33:12;;;;;;;8.57;4.90;;;;;;;13.65;100.00;102082.66;5017547;28;20114;-77
2023/10/06 04:35:42;;;;;;;12.38;4.85;;;;;;;13.66;100.00;102079.47;5010286;28;20445;-77
2023/10/06 04:38:12;;;;;;;12.45;5.55;;;;;;;13.69;100.00;102075.13;5028136;28;20033;-76
2023/10/06 04:40:38;;;;;;;12.65;5.28;;;;;;;13.67;100.00;102086.72;5016748;28;20029;-76
2023/10/06 04:43:03;;;;;;;10.43;5.45;;;;;;;13.67;100.00;102074.66;5022318;28;20029;-76
2023/10/06 04:45:32;;;;;;;12.32;4.88;;;;;;;13.55;100.00;102067.97;5025635;28;20108;-76
2023/10/06 04:48:00;;;;;;;12.55;4.70;;;;;;;13.61;100.00;102074.94;5024612;28;20025;-76
2023/10/06 04:50:32;;;;;;;15.98;5.07;;;;;;;13.55;100.00;102072.81;5018118;28;20045;-75
2023/10/06 04:52:57;;;;;;;12.80;5.00;;;;;;;13.58;100.00;102072.88;5025471;28;20037;-76
2023/10/06 04:55:22;;;;;;;13.82;4.90;;;;;;;13.63;100.00;102066.94;5014772;28;20433;-76
2023/10/06 04:57:48;;;;;;;10.77;4.75;;;;;;;13.61;100.00;102055.25;5016891;28;20036;-77
2023/10/06 05:00:19;;;;;;;11.68;5.28;;;;;;;13.60;100.00;102055.66;5014929;28;20030;-75
2023/10/06 05:02:47;;;;;;;10.43;4.82;;;;;;;13.64;100.00;102053.72;5019344;28;20032;-75
2023/10/06 05:05:14;;;;;;;13.73;4.97;;;;;;;13.66;100.00;102067.41;5014053;28;20018;-75
2023/10/06 05:07:39;;;;;;;9.95;5.20;;;;;;;13.61;100.00;102060.88;5022852;28;20033;-76
2023/10/06 05:10:08;;;;;;;11.70;4.85;;;;;;;13.60;100.00;102055.66;5021457;28;20028;-76
2023/10/06 05:12:36;;;;;;;10.13;5.88;;;;;;;13.63;100.00;102047.25;5018877;28;20056;-75
2023/10/06 05:15:03;;;;;;;12.93;5.50;;;;;;;13.62;100.00;102050.47;5015608;28;20126;-76
2023/10/06 05:17:29;;;;;;;13.10;5.85;;;;;;;13.68;100.00;102056.59;5014528;28;20065;-76
2023/10/06 05:19:54;;;;;;;10.70;5.38;;;;;;;13.66;100.00;102067.41;5022634;28;20563;-74
2023/10/06 05:22:21;;;;;;;12.57;5.07;;;;;;;13.65;100.00;102071.41;5016643;28;20087;-75
2023/10/06 05:24:47;;;;;;;13.90;5.30;;;;;;;13.65;100.00;102072.22;5019386;28;20382;-75
2023/10/06 05:27:13;;;;;;;8.50;4.43;;;;;;;13.69;100.00;102069.47;5020005;28;20409;-75
2023/10/06 05:29:38;;;;;;;10.95;5.00;;;;;;;13.63;100.00;102061.31;5022344;28;20033;-72
2023/10/06 05:32:04;;;;;;;9.68;4.53;;;;;;;13.63;100.00;102050.06;5023182;28;20036;-71
2023/10/06 05:34:30;;;;;;;9.63;4.63;;;;;;;13.63;100.00;102047.25;5015639;28;20026;-72
2023/10/06 05:36:56;;;;;;;10.43;5.30;;;;;;;13.60;100.00;102048.00;5019466;28;20470;-73
2023/10/06 05:39:21;;;;;;;11.02;4.45;;;;;;;13.65;100.00;102052.53;5013347;28;20100;-73
2023/10/06 05:41:47;;;;;;;15.60;5.07;;;;;;;13.65;100.00;102058.16;5020472;28;20474;-73
2023/10/06 05:44:13;;;;;;;8.80;4.57;;;;;;;13.66;100.00;102047.69;5021059;28;20041;-72
2023/10/06 05:46:41;;;;;;;13.75;6.22;;;;;;;13.67;100.00;102063.41;5025995;28;20025;-72
2023/10/06 05:49:08;;;;;;;10.35;5.18;;;;;;;13.59;100.00;102035.13;5018174;28;20030;-72
2023/10/06 05:51:38;;;;;;;11.18;4.70;;;;;;;13.68;100.00;102053.78;5016974;28;20096;-71
2023/10/06 05:54:09;;;;;;;16.75;4.97;;;;;;;13.94;100.00;102053.91;5015224;28;20033;-73
2023/10/06 05:56:39;;;;;;;10.00;4.00;;;;;;;14.23;100.00;102051.63;5012971;28;20112;-74
2023/10/06 05:59:05;;;;;;;14.48;3.97;;;;;;;14.52;100.00;102046.47;5022033;28;20029;-74
2023/10/06 06:01:32;;;;;;;7.88;4.20;;;;;;;14.37;100.00;102060.31;5023322;28;20389;-74
2023/10/06 06:03:57;;;;;;;14.77;4.85;;;;;;;14.81;100.00;102076.78;5019854;28;20124;-73
2023/10/06 06:06:24;;;;;;;8.30;3.35;;;;;;;14.91;100.00;102074.53;5022252;28;20622;-73
2023/10/06 06:08:51;;;;;;;10.30;3.90;;;;;;;14.79;100.00;102062.25;5019272;28;20061;-73
2023/10/06 06:11:17;;;;;;;10.90;4.18;;;;;;;14.49;100.00;102041.63;5015930;28;20352;-74
2023/10/06 06:13:42;;;;;;;11.77;4.57;;;;;;;14.32;100.00;102038.09;5024436;28;20049;-75
2023/10/06 06:16:08;;;;;;;7.15;3.40;;;;;;;14.72;100.00;102042.44;5013939;28;20446;-74
2023/10/06 06:18:34;;;;;;;8.07;3.53;;;;;;;15.25;100.00;102042.41;5026537;28;20033;-73
2023/10/06 06:21:03;;;;;;;8.35;3.58;;;;;;;15.70;100.00;102047.41;5013766;28;20037;-72
2023/10/06 06:23:33;;;;;;;9.32;3.33;;;;;;;15.64;100.00;102055.38;5015684;28;20037;-73
2023/10/06 06:25:59;;;;;;;11.05;4.15;;;;;;;15.84;100.00;102056.06;5018729;28;20394;-72
2023/10/06 06:28:25;;;;;;;10.82;4.57;;;;;;;15.36;100.00;102061.47;5014717;28;20045;-72
2023/10/06 06:30:51;;;;;;;9.65;4.50;;;;;;;15.29;100.00;102062.19;5035229;28;20486;-72
2023/10/06 06:33:22;;;;;;;13.48;5.28;;;;;;;15.07;100.00;102051.81;5015923;28;20037;-72
2023/10/06 06:35:48;;;;;;;11.32;4.30;;;;;;;15.25;100.00;102066.97;5017280;28;20034;-72
2023/10/06 06:38:14;;;;;;;12.98;3.92;;;;;;;14.83;100.00;102060.31;5020589;28;20120;-72
2023/10/06 06:40:40;;;;;;;9.45;4.60;;;;;;;15.21;100.00;102066.13;5012307;28;20060;-75
2023/10/06 06:43:12;;;;;;;7.85;4.15;;;;;;;14.90;100.00;102061.63;5016238;28;20460;-75
2023/10/06 06:45:41;;;;;;;6.93;3.25;;;;;;;15.27;100.00;102053.31;5015301;28;20052;-75
2023/10/06 06:48:13;;;;;;;7.47;3.03;;;;;;;15.55;100.00;102058.50;5017422;28;20029;-74
2023/10/06 06:50:44;;;;;;;10.82;3.70;;;;;;;15.90;100.00;102068.66;5012961;28;20061;-74
2023/10/06 06:53:10;;;;;;;10.85;3.42;;;;;;;16.21;100.00;102069.34;5022647;28;20579;-74
2023/10/06 06:55:37;;;;;;;7.88;3.63;;;;;;;16.36;100.00;102073.97;5020097;28;20029;-74
2023/10/06 06:58:06;;;;;;;8.02;3.40;;;;;;;16.72;100.00;102074.28;5026078;28;20057;-75
2023/10/06 07:00:33;;;;;;;8.07;3.90;;;;;;;15.93;100.00;102073.50;5017680;28;20112;-75
2023/10/06 07:03:00;;;;;;;9.95;4.30;;;;;;;15.74;100.00;102084.97;5014375;28;20462;-75
2023/10/06 07:05:26;;;;;;;6.78;3.22;;;;;;;15.50;100.00;102078.59;5019760;28;20108;-75
2023/10/06 07:07:52;;;;;;;13.98;3.80;;;;;;;16.24;100.00;102077.06;5016743;28;20068;-75
2023/10/06 07:10:25;;;;;;;10.50;3.40;;;;;;;16.16;100.00;102084.66;5018593;28;20422;-75
2023/10/06 07:12:51;;;;;;;8.38;4.28;;;;;;;16.03;100.00;102078.47;5016607;28;20048;-74
2023/10/06 07:15:21;;;;;;;7.78;3.75;;;;;;;15.25;100.00;102079.06;5022844;28;20030;-76
2023/10/06 07:17:49;;;;;;;13.65;6.35;;;;;;;14.60;100.00;102073.63;5015467;28;20470;-76
2023/10/06 07:20:20;;;;;;;13.00;5.28;;;;;;;14.43;100.00;102067.25;5021236;28;20040;-76
2023/10/06 07:22:54;;;;;;;9.55;4.75;;;;;;;14.31;100.00;102063.81;5024884;28;20037;-76
2023/10/06 07:25:21;;;;;;;7.38;4.63;;;;;;;14.37;100.00;102060.31;5017260;28;20113;-75
2023/10/06 07:27:49;;;;;;;13.93;5.30;;;;;;;14.28;100.00;102070.22;5031712;28;20144;-75
2023/10/06 07:30:16;;;;;;;7.65;4.63;;;;;;;14.30;100.00;102068.66;5019692;28;20043;-72
2023/10/06 07:32:43;;;;;;;10.07;4.50;;;;;;;14.32;100.00;102065.47;5019621;28;20481;-72
2023/10/06 07:35:12;;;;;;;10.07;4.50;;;;;;;14.29;100.00;102066.19;5019385;28;20033;-73
2023/10/06 07:37:43;;;;;;;9.95;4.28;;;;;;;14.26;100.00;102064.16;5013970;28;20041;-72
2023/10/06 07:40:18;;;;;;;10.30;4.95;;;;;;;14.32;100.00;102069.09;5013128;28;20033;-72
2023/10/06 07:42:46;;;;;;;9.95;4.22;;;;;;;14.34;100.00;102075.16;5015236;28;20100;-72
2023/10/06 07:45:12;;;;;;;11.05;4.30;;;;;;;14.36;100.00;102069.16;5021886;28;20063;-73
2023/10/06 07:47:42;;;;;;;9.48;4.85;;;;;;;14.38;100.00;102069.59;5022148;28;20463;-73
2023/10/06 07:50:14;;;;;;;8.88;4.85;;;;;;;14.36;100.00;102072.78;5019324;28;20445;-75
2023/10/06 07:52:43;;;;;;;;;;;;;;;14.49;100.00;102075.41;5018015;28;20845;-75
2023/10/06 07:55:09;;;;;;;10.15;4.88;;;;;;;14.54;100.00;102077.91;5022131;28;19924;-75
2023/10/06 07:57:48;;;;;;;12.05;5.53;;;;;;;14.53;100.00;102070.66;5020282;28;20041;-75
2023/10/06 08:00:24;;;;;;;12.02;5.50;;;;;;;14.57;100.00;102088.47;5015935;28;20033;-75
2023/10/06 08:02:49;;;;;;;12.25;6.45;;;;;;;14.56;100.00;102078.38;5014497;28;20052;-75
2023/10/06 08:05:17;;;;;;;11.75;5.40;;;;;;;14.59;100.00;102069.19;5023780;28;20064;-75
2023/10/06 08:07:43;;;;;;;11.98;6.05;;;;;;;14.63;100.00;102065.25;5022002;28;20135;-75
2023/10/06 08:10:16;;;;;;;13.90;5.22;;;;;;;14.65;100.00;102067.66;5015886;28;20116;-75
2023/10/06 08:12:43;;;;;;;11.55;5.10;;;;;;;14.73;100.00;102069.41;5026610;28;20384;-75
2023/10/06 08:15:10;;;;;;;10.65;6.25;;;;;;;14.73;100.00;102074.25;5030055;28;20036;-75
2023/10/06 08:17:36;;;;;;;12.57;5.47;;;;;;;14.81;100.00;102082.44;5017227;28;20371;-75
2023/10/06 08:20:02;;;;;;;7.63;4.38;;;;;;;14.75;100.00;102071.84;5019715;28;20024;-75
2023/10/06 08:22:33;;;;;;;16.15;6.68;;;;;;;14.77;100.00;102070.28;5022720;28;20033;-75
2023/10/06 08:24:59;;;;;;;13.63;5.57;;;;;;;14.84;100.00;102080.84;5022503;28;20163;-75
2023/10/06 08:27:25;;;;;;;12.32;5.10;;;;;;;14.89;100.00;102068.47;5028629;28;20139;-75
2023/10/06 08:29:54;;;;;;;8.68;4.78;;;;;;;14.91;100.00;102069.69;5026941;28;20029;-75
2023/10/06 08:32:19;;;;;;;14.40;5.40;;;;;;;14.96;100.00;102079.84;5027777;28;20033;-75
2023/10/06 08:34:46;;;;;;;19.02;5.55;;;;;;;14.98;100.00;102074.63;5024430;28;20076;-75
2023/10/06 08:37:15;;;;;;;13.70;5.45;;;;;;;14.97;100.00;102082.28;5027908;28;20061;-75
2023/10/06 08:39:40;;;;;;;6.35;4.20;;;;;;;15.06;100.00;102089.66;5020435;28;20590;-74
2023/10/06 08:42:17;;;;;;;15.35;7.05;;;;;;;15.05;100.00;102080.38;5016208;28;20033;-74
2023/10/06 08:44:44;;;;;;;12.02;5.00;;;;;;;15.11;100.00;102084.50;5022358;28;20375;-74
2023/10/06 08:47:13;;;;;;;11.68;4.75;;;;;;;15.14;100.00;102078.09;5025201;28;20075;-74
2023/10/06 08:49:43;;;;;;;10.60;5.30;;;;;;;15.27;100.00;102072.25;5021858;28;20115;-75
2023/10/06 08:52:12;;;;;;;9.98;5.20;;;;;;;15.38;100.00;102076.81;5027923;28;20028;-75
2023/10/06 08:54:42;;;;;;;15.98;5.10;;;;;;;15.40;100.00;102079.28;5015753;28;20025;-75
2023/10/06 08:57:11;;;;;;;11.70;4.30;;;;;;;15.58;100.00;102066.22;5021573;28;20026;-74
2023/10/06 08:59:37;;;;;;;8.45;5.00;;;;;;;15.65;100.00;102079.59;5023061;28;20033;-75
2023/10/06 09:02:03;;;;;;;9.30;4.07;;;;;;;15.57;100.00;102084.34;5021414;28;20053;-75
2023/10/06 09:04:35;;;;;;;10.10;4.88;;;;;;;15.67;100.00;102087.69;5019592;28;20040;-75
2023/10/06 09:07:08;;;;;;;;;;;;;;;15.73;100.00;102083.38;5021230;28;20164;-75
2023/10/06 09:09:33;;;;;;;10.88;4.45;;;;;;;15.67;100.00;102085.69;5015522;28;19925;-76
2023/10/06 09:11:58;;;;;;;5.85;3.50;;;;;;;15.71;100.00;102083.72;5020255;28;20029;-75
2023/10/06 09:14:25;;;;;;;7.93;3.42;;;;;;;15.77;100.00;102085.03;5017916;28;20033;-76
2023/10/06 09:16:51;;;;;;;7.55;3.20;;;;;;;15.81;100.00;102099.16;5015689;28;20091;-75
2023/10/06 09:19:17;;;;;;;17.13;4.13;;;;;;;15.89;100.00;102078.28;5018394;28;20061;-76
2023/10/06 09:22:18;;;;;;;10.77;4.03;;;;;;;16.05;100.00;102078.91;5014627;28;20117;-76
2023/10/06 09:25:04;;;;;;;7.78;3.15;;;;;;;16.14;100.00;102074.94;4995300;28;20042;-75
2023/10/06 09:27:31;;;;;;;9.18;4.55;;;;;;;16.34;100.00;102081.19;5016201;28;20333;-75
2023/10/06 09:30:01;;;;;;;8.30;3.72;;;;;;;16.20;100.00;102082.69;5019480;28;20102;-74
2023/10/06 09:32:27;;;;;;;13.57;5.38;;;;;;;16.19;100.00;102061.28;5020614;28;20029;-76
2023/10/06 09:34:57;;;;;;;13.65;4.53;;;;;;;16.28;100.00;102072.28;5017149;28;20042;-76
2023/10/06 09:37:22;;;;;;;7.88;3.30;;;;;;;16.17;100.00;102066.53;5015963;28;20084;-76
2023/10/06 09:39:59;;;;;;;8.55;3.15;;;;;;;16.34;100.00;102065.06;5025864;28;20029;-76
2023/10/06 09:42:31;;;;;;;7.93;3.15;;;;;;;16.40;100.00;102083.31;5018144;28;20095;-76
2023/10/06 09:45:07;;;;;;;9.13;4.05;;;;;;;16.59;100.00;102070.13;5022569;28;20389;-75
2023/10/06 09:47:40;;;;;;;8.13;3.97;;;;;;;16.62;100.00;102063.69;5014867;28;20045;-75
2023/10/06 09:50:06;;;;;;;9.25;4.38;;;;;;;16.77;100.00;102053.31;5023437;28;20034;-76
2023/10/06 09:52:34;;;;;;;7.93;4.13;;;;;;;16.77;100.00;102054.13;5022972;28;20029;-75
2023/10/06 09:55:04;;;;;;;8.52;3.97;;;;;;;16.71;100.00;102041.56;5022234;28;20418;-76
2023/10/06 09:57:31;;;;;;;10.40;3.50;;;;;;;16.67;100.00;102037.88;5020094;28;20049;-76
2023/10/06 09:59:59;;;;;;;10.93;3.65;;;;;;;16.84;100.00;102037.25;5013267;28;20029;-76
2023/10/06 10:02:25;;;;;;;14.35;4.65;;;;;;;16.82;100.00;102044.47;5015762;28;20490;-76
2023/10/06 10:04:54;;;;;;;6.30;3.05;;;;;;;16.95;100.00;102050.63;5016663;28;20045;-76
2023/10/06 10:07:20;;;;;;;10.10;3.97;;;;;;;16.82;100.00;102050.13;5020129;28;20068;-76
2023/10/06 10:09:46;;;;;;;10.18;3.78;;;;;;;16.76;100.00;102058.16;5014069;28;20045;-76
2023/10/06 10:12:38;;;;;;;9.25;3.67;;;;;;;16.80;100.00;102046.84;5028142;28;20037;-76
2023/10/06 10:15:16;;;;;;;11.68;4.28;;;;;;;16.88;100.00;102056.25;5024857;28;20043;-76
2023/10/06 10:18:05;;;;;;;8.43;3.97;;;;;;;17.12;100.00;102058.44;5022082;28;20035;-76
2023/10/06 10:20:32;;;;;;;8.57;3.10;;;;;;;17.30;100.00;102054.91;5034766;28;20037;-76
2023/10/06 10:23:01;;;;;;;7.68;3.90;;;;;;;17.04;100.00;102039.81;5024179;28;20125;-77
2023/10/06 10:25:34;;;;;;;7.65;4.25;;;;;;;17.02;100.00;102039.38;5017062;28;20032;-76
2023/10/06 10:28:27;;;;;;;11.07;4.45;;;;;;;16.98;100.00;102030.88;5024915;28;20053;-77
2023/10/06 10:31:02;;;;;;;7.10;3.33;;;;;;;17.10;100.00;102038.22;5016121;28;20052;-76
2023/10/06 10:33:33;;;;;;;10.18;3.72;;;;;;;17.12;100.00;102038.63;5019094;28;20041;-76
2023/10/06 10:36:11;;;;;;;10.90;4.32;;;;;;;17.23;100.00;102036.66;5017588;28;20034;-76
2023/10/06 10:38:37;;;;;;;11.88;4.07;;;;;;;17.45;100.00;102031.09;5019356;28;20040;-77
2023/10/06 10:41:08;;;;;;;9.40;4.20;;;;;;;17.47;100.00;102051.34;5020167;28;20030;-77
2023/10/06 10:43:37;;;;;;;9.25;3.83;;;;;;;17.38;100.00;102054.53;5020355;28;20033;-76
2023/10/06 10:46:08;;;;;;;8.68;3.80;;;;;;;17.53;100.00;102049.75;5015420;28;20025;-77
2023/10/06 10:48:37;;;;;;;10.13;3.50;;;;;;;17.52;100.00;102036.81;5018725;28;20029;-76
2023/10/06 10:51:12;;;;;;;6.35;3.35;;;;;;;17.44;100.00;102027.47;5015762;28;20018;-76
2023/10/06 10:53:43;;;;;;;12.38;3.75;;;;;;;17.32;100.00;102027.00;5016130;28;20038;-76
2023/10/06 10:56:34;;;;;;;9.63;3.88;;;;;;;17.22;100.00;102037.91;5016569;28;20029;-76
2023/10/06 10:58:59;;;;;;;7.93;3.95;;;;;;;17.11;100.00;102034.16;5021275;28;20075;-76
2023/10/06 11:01:38;;;;;;;8.07;4.10;;;;;;;17.11;100.00;102033.38;5022861;28;20033;-76
2023/10/06 11:04:09;;;;;;;21.05;5.22;;;;;;;17.14;100.00;102043.88;5012820;28;20083;-75
2023/10/06 11:06:38;;;;;;;6.13;3.60;;;;;;;17.15;100.00;102040.66;5025102;28;20765;-75
2023/10/06 11:09:12;;;;;;;12.65;4.22;;;;;;;17.19;100.00;102041.50;5021552;28;20400;-77
2023/10/06 11:11:41;;;;;;;9.02;3.50;;;;;;;17.21;100.00;102033.44;5024332;28;20020;-75
2023/10/06 11:14:07;;;;;;;13.82;3.70;;;;;;;17.33;100.00;102031.44;5026274;28;20022;-75
2023/10/06 11:16:32;;;;;;;10.13;3.58;;;;;;;17.45;100.00;102042.44;5022605;28;20037;-76
2023/10/06 11:19:03;;;;;;;8.95;3.40;;;;;;;17.44;100.00;102040.81;5022736;28;20029;-72
2023/10/06 11:21:30;;;;;;;9.02;4.03;;;;;;;17.54;100.00;102023.06;5025513;28;20498;-73
2023/10/06 11:23:58;;;;;;;12.20;2.85;;;;;;;17.40;100.00;102026.66;5026562;28;20029;-72
2023/10/06 11:26:27;;;;;;;9.98;3.35;;;;;;;17.55;100.00;102019.03;5023318;28;20023;-72
2023/10/06 11:28:53;;;;;;;8.73;3.72;;;;;;;17.72;100.00;102027.97;5023468;28;20064;-73
2023/10/06 11:31:18;;;;;;;12.38;4.25;;;;;;;17.71;100.00;102021.50;5026305;28;20067;-73
2023/10/06 11:33:44;;;;;;;13.13;4.72;;;;;;;17.67;100.00;102015.84;5018096;28;20025;-73